Time;durP1;ratioP1;P1;durP2;ratioP2;P2;SDS_P1;SDS_P2;PMS_P1;PMS_P2;Temp;Humidity;BMP_temperature;BMP_pressure;BME280_temperature;BME280_humidity;BME280_pressure;Samples;Min_cycle;Max_cycle;Signal;HPM_P1;HPM_P2
2023/10/01 00:00:42;;;;;;;10.13;5.80;;;15.60;66.20;;;;;;5044983;28;20238;-29
2023/10/01 00:03:16;;;;;;;7.73;5.57;;;15.50;66.20;;;;;;5045234;28;20231;-29
2023/10/01 00:05:43;;;;;;;8.20;5.40;;;15.50;66.20;;;;;;5045669;28;20240;-29
2023/10/01 00:08:13;;;;;;;8.73;5.50;;;15.50;66.30;;;;;;5043657;28;20682;-29
2023/10/01 00:10:45;;;;;;;8.00;5.30;;;15.50;66.30;;;;;;5045077;28;20520;-29
2023/10/01 00:13:15;;;;;;;7.80;4.70;;;15.40;66.20;;;;;;5043871;28;20208;-30
2023/10/01 00:15:43;;;;;;;9.70;4.83;;;15.50;66.30;;;;;;5044992;28;20263;-29
2023/10/01 00:18:10;;;;;;;10.93;4.70;;;15.40;66.20;;;;;;5043719;28;20232;-29
2023/10/01 00:20:38;;;;;;;8.50;5.43;;;15.40;66.30;;;;;;5043769;28;20282;-29
2023/10/01 00:23:06;;;;;;;9.07;5.10;;;15.40;66.30;;;;;;5045122;28;20196;-29
2023/10/01 00:25:35;;;;;;;11.17;5.50;;;15.40;66.30;;;;;;5044247;28;20232;-29
2023/10/01 00:28:04;;;;;;;11.20;5.17;;;15.40;66.30;;;;;;5045380;28;20239;-29
2023/10/01 00:30:32;;;;;;;9.80;4.77;;;15.30;66.30;;;;;;5045064;28;20192;-29
2023/10/01 00:33:10;;;;;;;9.47;4.90;;;15.30;66.30;;;;;;5044795;28;20204;-30
2023/10/01 00:35:41;;;;;;;8.60;4.97;;;15.30;66.40;;;;;;5044738;28;20798;-29
2023/10/01 00:38:09;;;;;;;9.87;5.50;;;15.30;66.40;;;;;;5043233;28;20223;-29
2023/10/01 00:40:37;;;;;;;8.57;4.83;;;15.30;66.40;;;;;;5044937;28;20697;-29
2023/10/01 00:43:05;;;;;;;9.00;4.80;;;15.30;66.40;;;;;;5045244;28;20216;-29
2023/10/01 00:45:32;;;;;;;10.53;5.20;;;15.20;66.50;;;;;;5044478;28;20670;-30
2023/10/01 00:48:14;;;;;;;9.17;5.83;;;15.20;66.40;;;;;;5043117;28;20660;-29
2023/10/01 00:50:43;;;;;;;11.30;5.17;;;15.20;66.40;;;;;;5043107;28;20204;-29
2023/10/01 00:53:10;;;;;;;9.70;5.10;;;15.20;66.40;;;;;;5047361;28;20591;-29
2023/10/01 00:55:41;;;;;;;7.33;5.10;;;15.20;66.50;;;;;;5048638;28;20686;-29
2023/10/01 00:58:10;;;;;;;9.10;5.13;;;15.20;66.50;;;;;;5045862;28;20251;-29
2023/10/01 01:00:38;;;;;;;11.07;4.93;;;15.20;66.50;;;;;;5047206;28;20362;-29
2023/10/01 01:03:07;;;;;;;10.93;5.00;;;15.20;66.50;;;;;;5048580;28;20697;-29
2023/10/01 01:05:37;;;;;;;10.63;5.13;;;15.20;66.50;;;;;;5030924;28;20204;-29
2023/10/01 01:08:09;;;;;;;8.40;5.00;;;15.20;66.50;;;;;;5048259;28;20756;-29
2023/10/01 01:10:41;;;;;;;9.10;4.90;;;15.10;66.40;;;;;;5046632;28;20200;-29
2023/10/01 01:13:16;;;;;;;9.00;4.63;;;15.10;66.50;;;;;;5048369;28;20635;-29
2023/10/01 01:15:53;;;;;;;7.77;4.83;;;15.10;66.50;;;;;;5037370;28;20713;-29
2023/10/01 01:18:21;;;;;;;10.67;5.33;;;15.10;66.60;;;;;;5046122;28;20234;-29
2023/10/01 01:20:57;;;;;;;7.53;4.70;;;15.10;66.50;;;;;;5048303;28;20238;-29
2023/10/01 01:23:30;;;;;;;9.10;5.00;;;15.10;66.60;;;;;;5048206;28;20200;-29
2023/10/01 01:25:59;;;;;;;10.73;5.60;;;15.10;66.60;;;;;;5046436;28;20549;-30
2023/10/01 01:28:30;;;;;;;8.23;5.13;;;15.10;66.60;;;;;;5048424;28;20295;-29
2023/10/01 01:31:02;;;;;;;10.37;4.90;;;15.10;66.60;;;;;;5047912;28;20207;-29
2023/10/01 01:33:40;;;;;;;9.13;5.17;;;15.10;66.60;;;;;;5047989;28;20197;-29
2023/10/01 01:36:09;;;;;;;7.80;4.80;;;15.00;66.60;;;;;;5046954;28;20204;-29
2023/10/01 01:38:50;;;;;;;8.47;5.67;;;15.00;66.60;;;;;;5048066;28;20213;-29
2023/10/01 01:41:28;;;;;;;11.43;5.20;;;15.00;66.70;;;;;;5046321;28;20673;-29
2023/10/01 01:43:57;;;;;;;9.50;4.63;;;15.00;66.60;;;;;;5047676;28;20613;-29
2023/10/01 01:46:27;;;;;;;7.30;5.10;;;15.00;66.60;;;;;;5047737;28;20644;-29
2023/10/01 01:48:56;;;;;;;10.17;4.67;;;15.00;67.40;;;;;;5047418;28;20318;-29
2023/10/01 01:51:29;;;;;;;7.17;4.70;;;15.00;66.70;;;;;;5047441;28;20472;-29
2023/10/01 01:53:59;;;;;;;8.90;4.93;;;14.90;66.60;;;;;;5047579;28;20215;-29
2023/10/01 01:56:27;;;;;;;8.77;5.13;;;15.00;66.70;;;;;;5047381;28;20228;-29
2023/10/01 01:58:55;;;;;;;9.07;4.87;;;14.90;66.60;;;;;;5046089;28;20262;-29
2023/10/01 02:01:29;;;;;;;11.17;4.90;;;14.90;66.70;;;;;;5045949;28;20242;-29
2023/10/01 02:03:58;;;;;;;8.63;5.40;;;14.90;66.60;;;;;;5046404;28;20698;-29
2023/10/01 02:06:28;;;;;;;9.23;5.00;;;14.90;66.70;;;;;;5047379;28;20230;-29
2023/10/01 02:08:58;;;;;;;7.57;4.50;;;14.90;66.70;;;;;;5046809;28;20781;-29
2023/10/01 02:11:32;;;;;;;8.20;4.93;;;14.90;66.80;;;;;;5046060;28;20218;-29
2023/10/01 02:14:02;;;;;;;8.57;4.93;;;14.90;66.70;;;;;;5046361;28;20224;-30
2023/10/01 02:16:37;;;;;;;11.70;5.20;;;14.90;66.80;;;;;;5047384;28;20570;-30
2023/10/01 02:19:19;;;;;;;12.00;5.60;;;14.80;66.80;;;;;;5045933;28;20678;-29
2023/10/01 02:22:00;;;;;;;9.07;6.03;;;14.80;66.70;;;;;;5046890;28;20303;-29
2023/10/01 02:25:16;;;;;;;9.37;5.60;;;14.80;66.80;;;;;;5047268;28;20200;-29
2023/10/01 02:27:26;;;;;;;8.70;5.10;;;14.80;66.80;;;;;;5049117;28;20227;-29
2023/10/01 02:30:13;;;;;;;9.80;5.17;;;14.70;66.80;;;;;;5046981;28;20239;-29
2023/10/01 02:33:15;;;;;;;8.87;5.80;;;14.70;66.80;;;;;;5047029;28;20287;-29
2023/10/01 02:35:41;;;;;;;10.40;6.23;;;14.70;66.80;;;;;;5046828;28;20309;-29
2023/10/01 02:40:57;;;;;;;9.00;4.97;;;14.70;66.80;;;;;;5046748;28;20196;-29
2023/10/01 02:43:35;;;;;;;11.90;5.30;;;14.70;66.80;;;;;;5046546;28;20203;-32
2023/10/01 02:46:07;;;;;;;7.87;4.57;;;14.70;66.90;;;;;;5046793;28;20732;-32
2023/10/01 02:48:36;;;;;;;9.87;4.80;;;14.70;66.90;;;;;;5046939;28;20670;-32
2023/10/01 02:51:16;;;;;;;7.07;4.43;;;14.70;66.90;;;;;;5046982;28;20474;-32
2023/10/01 02:54:05;;;;;;;8.67;5.27;;;14.60;66.80;;;;;;5046653;28;20250;-33
2023/10/01 02:56:37;;;;;;;10.90;5.27;;;14.60;66.90;;;;;;5046917;28;20560;-32
2023/10/01 02:59:11;;;;;;;9.33;5.37;;;14.60;66.90;;;;;;5044860;28;20422;-32
2023/10/01 03:01:42;;;;;;;13.10;5.10;;;14.60;66.90;;;;;;5045893;28;20236;-32
2023/10/01 03:04:13;;;;;;;8.00;4.40;;;14.60;66.90;;;;;;5044798;28;20769;-33
2023/10/01 03:06:53;;;;;;;9.77;4.87;;;14.60;66.90;;;;;;5044754;28;20212;-32
2023/10/01 03:09:34;;;;;;;10.90;5.67;;;14.60;66.90;;;;;;5044718;28;20631;-33
2023/10/01 03:17:55;;;;;;;10.70;5.37;;;14.60;67.00;;;;;;5046006;28;20220;-32
2023/10/01 03:29:13;;;;;;;9.90;5.30;;;14.60;67.10;;;;;;5046035;28;20287;-33
2023/10/01 03:31:25;;;;;;;9.87;5.37;;;14.60;67.10;;;;;;5045866;28;20282;-32
2023/10/01 03:33:55;;;;;;;13.00;5.83;;;14.60;67.10;;;;;;5045643;28;20216;-32
2023/10/01 03:36:28;;;;;;;8.97;5.10;;;14.60;67.10;;;;;;5043934;28;20202;-32
2023/10/01 03:41:53;;;;;;;10.07;5.40;;;14.70;67.20;;;;;;5045464;28;20292;-32
2023/10/01 03:47:09;;;;;;;11.97;5.20;;;14.70;67.10;;;;;;5045440;28;20207;-32
2023/10/01 03:49:37;;;;;;;10.33;5.90;;;14.60;67.10;;;;;;5044034;28;20211;-32
2023/10/01 03:52:09;;;;;;;10.40;5.47;;;14.70;67.10;;;;;;5044022;28;20200;-32
2023/10/01 03:55:00;;;;;;;12.70;5.77;;;14.70;67.10;;;;;;5045281;28;20204;-32
2023/10/01 03:57:29;;;;;;;10.87;5.53;;;14.70;67.20;;;;;;5045148;28;20235;-33
2023/10/01 04:00:09;;;;;;;9.30;5.63;;;14.70;67.10;;;;;;5044188;28;20200;-32
2023/10/01 04:02:47;;;;;;;9.90;5.70;;;14.70;67.20;;;;;;5044393;28;20322;-32
2023/10/01 04:05:31;;;;;;;12.00;6.77;;;14.70;67.20;;;;;;5045441;28;20581;-32
2023/10/01 04:08:04;;;;;;;10.10;5.60;;;14.70;67.20;;;;;;5045141;28;20319;-32
2023/10/01 04:10:31;;;;;;;8.80;5.40;;;14.70;67.20;;;;;;5045405;28;20253;-32
2023/10/01 04:13:00;;;;;;;10.10;5.63;;;14.60;67.10;;;;;;5045273;28;20208;-32
2023/10/01 04:15:30;;;;;;;10.23;6.00;;;14.60;67.20;;;;;;5045079;28;20270;-32
2023/10/01 04:23:40;;;;;;;11.30;6.27;;;14.70;67.20;;;;;;5044628;28;20227;-32
2023/10/01 04:26:16;;;;;;;11.90;6.67;;;14.60;67.20;;;;;;5043120;28;20203;-32
2023/10/01 04:28:54;;;;;;;11.77;6.00;;;14.60;67.30;;;;;;5028231;28;20686;-32
2023/10/01 04:34:13;;;;;;;12.17;6.27;;;14.60;67.20;;;;;;5044872;28;20224;-32
2023/10/01 04:36:44;;;;;;;13.97;6.60;;;14.60;67.30;;;;;;5045855;28;20638;-32
2023/10/01 04:39:11;;;;;;;10.90;5.73;;;14.60;67.30;;;;;;5044072;28;20548;-32
2023/10/01 04:41:41;;;;;;;10.93;6.07;;;14.60;67.30;;;;;;5043298;28;20314;-33
2023/10/01 04:44:13;;;;;;;16.13;6.67;;;14.60;67.40;;;;;;5045183;28;20660;-32
2023/10/01 04:46:41;;;;;;;11.73;6.87;;;14.70;67.40;;;;;;5045360;28;20211;-32
2023/10/01 04:49:27;;;;;;;13.13;6.70;;;14.60;67.40;;;;;;5044760;28;20657;-32
2023/10/01 04:52:10;;;;;;;14.30;6.83;;;14.70;67.40;;;;;;5044756;28;20203;-32
2023/10/01 04:54:44;;;;;;;11.77;6.30;;;14.60;67.40;;;;;;5044789;28;20655;-32
2023/10/01 04:57:12;;;;;;;13.30;6.67;;;14.70;67.50;;;;;;5044882;28;20192;-32
2023/10/01 04:59:56;;;;;;;12.87;6.50;;;14.60;67.40;;;;;;5043094;28;20204;-32
2023/10/01 05:02:25;;;;;;;12.40;6.40;;;14.60;67.40;;;;;;5044898;28;20201;-32
2023/10/01 05:05:09;;;;;;;16.63;6.90;;;14.70;67.50;;;;;;5044640;28;20200;-32
2023/10/01 05:07:37;;;;;;;12.73;6.30;;;14.70;67.50;;;;;;5044782;28;20211;-32
2023/10/01 05:10:07;;;;;;;11.53;5.90;;;14.70;67.50;;;;;;5044635;28;20265;-32
2023/10/01 05:12:43;;;;;;;12.77;7.47;;;14.70;67.50;;;;;;5045388;28;20284;-33
2023/10/01 05:15:24;;;;;;;10.43;6.20;;;14.70;67.50;;;;;;5044838;28;20199;-33
2023/10/01 05:17:55;;;;;;;10.67;6.33;;;14.70;67.50;;;;;;5044534;28;20212;-32
2023/10/01 05:20:25;;;;;;;11.07;6.60;;;14.70;67.50;;;;;;5044382;28;20188;-32
2023/10/01 05:22:58;;;;;;;14.73;7.37;;;14.60;67.50;;;;;;5042943;28;20448;-33
2023/10/01 05:25:31;;;;;;;13.47;6.83;;;14.70;67.60;;;;;;5044527;28;20211;-32
2023/10/01 05:28:03;;;;;;;15.70;6.43;;;14.70;67.60;;;;;;5044290;28;20214;-32
2023/10/01 05:30:39;;;;;;;14.03;7.20;;;14.70;67.60;;;;;;5044260;28;20314;-32
2023/10/01 05:33:07;;;;;;;12.70;7.10;;;14.60;67.60;;;;;;5043628;28;20232;-32
2023/10/01 05:35:44;;;;;;;12.80;7.60;;;14.70;67.70;;;;;;5026831;28;20224;-32
2023/10/01 05:38:14;;;;;;;14.50;7.37;;;14.70;67.70;;;;;;5043999;28;20318;-32
2023/10/01 05:40:44;;;;;;;12.30;7.37;;;14.70;67.80;;;;;;5046963;28;20283;-32
2023/10/01 05:43:15;;;;;;;16.50;7.60;;;14.70;67.80;;;;;;5047875;28;20309;-32
2023/10/01 05:45:50;;;;;;;12.73;6.57;;;14.70;67.80;;;;;;5046110;28;20693;-32
2023/10/01 05:48:23;;;;;;;15.27;7.33;;;14.70;67.80;;;;;;5048137;28;20206;-32
2023/10/01 05:50:56;;;;;;;13.30;7.20;;;14.70;67.80;;;;;;5030231;28;20215;-33
2023/10/01 05:53:24;;;;;;;13.77;7.17;;;14.70;67.80;;;;;;5048496;28;20226;-33
2023/10/01 05:55:54;;;;;;;16.07;7.53;;;14.70;67.80;;;;;;5045971;28;20204;-32
2023/10/01 05:58:22;;;;;;;13.40;7.83;;;14.70;67.80;;;;;;5047592;28;20305;-32
2023/10/01 06:01:05;;;;;;;15.10;7.77;;;14.70;67.80;;;;;;5047310;28;20758;-33
2023/10/01 06:03:34;;;;;;;10.83;6.83;;;14.80;67.90;;;;;;5047896;28;20196;-32
2023/10/01 06:06:13;;;;;;;16.57;7.67;;;14.80;67.90;;;;;;5046178;28;20208;-32
2023/10/01 06:08:49;;;;;;;12.33;7.00;;;14.80;68.00;;;;;;5047518;28;20236;-32
2023/10/01 06:11:17;;;;;;;15.23;7.63;;;14.80;68.00;;;;;;5047464;28;20297;-32
2023/10/01 06:13:51;;;;;;;14.13;7.83;;;14.80;68.00;;;;;;5045670;28;20706;-32
2023/10/01 06:16:23;;;;;;;16.07;8.03;;;14.80;68.00;;;;;;5046161;28;20812;-32
2023/10/01 06:18:58;;;;;;;16.43;7.40;;;14.80;68.00;;;;;;5029729;28;20224;-32
2023/10/01 06:21:32;;;;;;;15.07;7.77;;;14.80;68.00;;;;;;5046882;28;20206;-32
2023/10/01 06:24:06;;;;;;;18.23;7.87;;;14.90;68.10;;;;;;5045699;28;20207;-33
2023/10/01 06:26:37;;;;;;;14.43;7.73;;;14.90;68.10;;;;;;5047634;28;20216;-32
2023/10/01 06:29:07;;;;;;;13.27;7.70;;;14.90;68.10;;;;;;5045850;28;20196;-32
2023/10/01 06:34:26;;;;;;;14.03;6.97;;;15.00;68.20;;;;;;5047014;28;20219;-32
2023/10/01 06:36:58;;;;;;;15.73;7.80;;;15.00;68.30;;;;;;5046817;28;20257;-32
2023/10/01 06:39:30;;;;;;;12.20;6.47;;;15.00;68.30;;;;;;5045186;28;20228;-32
2023/10/01 06:42:18;;;;;;;15.87;7.50;;;15.00;68.30;;;;;;5046670;28;20705;-32
2023/10/01 06:44:55;;;;;;;14.13;7.50;;;15.10;68.40;;;;;;5047311;28;20201;-32
2023/10/01 06:47:28;;;;;;;16.93;8.30;;;15.10;68.40;;;;;;5045349;28;20199;-32
2023/10/01 06:50:29;;;;;;;15.23;7.73;;;15.10;68.40;;;;;;5046327;28;20208;-32
2023/10/01 06:52:49;;;;;;;18.87;8.10;;;15.20;68.40;;;;;;5047613;28;20313;-32
2023/10/01 06:55:28;;;;;;;16.37;8.30;;;15.20;68.50;;;;;;5046806;28;20288;-32
2023/10/01 06:57:55;;;;;;;16.00;8.30;;;15.20;68.50;;;;;;5047010;28;20672;-32
2023/10/01 07:00:33;;;;;;;14.63;7.97;;;15.30;68.50;;;;;;5047148;28;20263;-33
2023/10/01 07:03:17;;;;;;;14.10;8.50;;;15.30;68.60;;;;;;5045826;28;20277;-33
2023/10/01 07:05:51;;;;;;;14.67;8.23;;;15.30;68.60;;;;;;5046418;28;20195;-32
2023/10/01 07:08:19;;;;;;;13.17;6.97;;;15.40;68.60;;;;;;5046316;28;20203;-33
2023/10/01 07:10:50;;;;;;;15.97;8.17;;;15.40;68.60;;;;;;5046196;28;20674;-33
2023/10/01 07:13:18;;;;;;;15.40;8.53;;;15.40;68.70;;;;;;5028991;28;20742;-32
2023/10/01 07:15:46;;;;;;;15.27;7.97;;;15.50;68.80;;;;;;5046103;28;20761;-32
2023/10/01 07:18:19;;;;;;;16.23;8.27;;;15.50;68.70;;;;;;5046657;28;20224;-32
2023/10/01 07:20:49;;;;;;;14.67;7.60;;;15.60;68.80;;;;;;5028535;28;20204;-33
2023/10/01 07:23:21;;;;;;;16.77;8.60;;;15.60;68.80;;;;;;5046257;28;20204;-32
2023/10/01 07:26:00;;;;;;;18.20;8.03;;;15.70;68.90;;;;;;5044554;28;20208;-33
2023/10/01 07:28:28;;;;;;;16.67;7.83;;;15.70;68.90;;;;;;5045955;28;20210;-33
2023/10/01 07:31:01;;;;;;;15.30;8.20;;;15.70;68.90;;;;;;5044400;28;20193;-33
2023/10/01 07:33:33;;;;;;;14.37;8.23;;;15.80;68.90;;;;;;5044664;28;20199;-32
2023/10/01 07:36:07;;;;;;;14.90;7.90;;;15.90;69.00;;;;;;5045778;28;20308;-32
2023/10/01 07:38:48;;;;;;;17.80;8.77;;;15.90;69.00;;;;;;5046678;28;20758;-33
2023/10/01 07:41:17;;;;;;;15.77;8.10;;;16.00;69.00;;;;;;5046505;28;20721;-33
2023/10/01 07:43:46;;;;;;;15.93;8.67;;;16.00;69.10;;;;;;5044476;28;20199;-32
2023/10/01 07:46:14;;;;;;;15.57;7.87;;;16.10;69.10;;;;;;5044181;28;20250;-33
2023/10/01 07:48:51;;;;;;;15.27;8.67;;;16.10;69.10;;;;;;5043940;28;20200;-32
2023/10/01 07:51:30;;;;;;;12.37;7.07;;;16.20;69.20;;;;;;5045715;28;20223;-33
2023/10/01 07:54:02;;;;;;;12.43;7.27;;;16.20;69.10;;;;;;5045710;28;20921;-33
2023/10/01 07:56:29;;;;;;;14.07;7.83;;;16.30;69.20;;;;;;5028527;28;20571;-33
2023/10/01 07:58:57;;;;;;;17.20;8.47;;;16.30;69.10;;;;;;5044268;28;20279;-32
2023/10/01 08:01:37;;;;;;;13.97;8.10;;;16.40;69.20;;;;;;5044753;28;20710;-32
2023/10/01 08:06:56;;;;;;;14.40;7.87;;;16.50;69.30;;;;;;5045696;28;20196;-33
2023/10/01 08:09:23;;;;;;;14.37;8.10;;;16.60;69.30;;;;;;5027181;28;20232;-32
2023/10/01 08:12:05;;;;;;;16.40;8.57;;;16.60;69.20;;;;;;5043880;28;20601;-32
2023/10/01 08:14:34;;;;;;;14.77;8.40;;;16.70;69.20;;;;;;5044589;28;20208;-32
2023/10/01 08:17:07;;;;;;;14.97;7.83;;;16.70;69.30;;;;;;5045734;28;20217;-32
2023/10/01 08:19:44;;;;;;;15.77;8.67;;;16.80;70.10;;;;;;5044006;28;20220;-32
2023/10/01 08:22:13;;;;;;;16.03;8.77;;;16.80;69.30;;;;;;5045542;28;20204;-32
2023/10/01 08:24:49;;;;;;;16.50;9.30;;;16.90;69.40;;;;;;5044329;28;20215;-33
2023/10/01 08:27:32;;;;;;;17.43;8.70;;;16.90;69.30;;;;;;5045366;28;20208;-32
2023/10/01 08:30:38;;;;;;;15.93;8.23;;;17.00;69.40;;;;;;5044337;28;20741;-29
2023/10/01 08:33:32;;;;;;;17.10;8.63;;;17.10;69.40;;;;;;5027198;28;20204;-29
2023/10/01 08:36:12;;;;;;;16.20;8.10;;;17.10;69.40;;;;;;5045743;28;20299;-29
2023/10/01 08:38:47;;;;;;;13.35;7.80;;;17.20;69.40;;;;;;5045016;28;20222;-29
2023/10/01 08:41:33;;;;;;;12.95;8.13;;;17.30;69.50;;;;;;5043488;28;20299;-29
2023/10/01 08:44:10;;;;;;;16.90;8.63;;;17.30;69.50;;;;;;5045055;28;20243;-29
2023/10/01 08:46:41;;;;;;;15.40;8.77;;;17.40;69.60;;;;;;5045411;28;20196;-32
2023/10/01 08:49:23;;;;;;;14.83;7.77;;;17.40;69.60;;;;;;5044901;28;20204;-29
2023/10/01 08:52:18;;;;;;;16.90;8.70;;;17.50;69.50;;;;;;5044767;28;20212;-29
2023/10/01 08:54:48;;;;;;;17.00;8.27;;;17.60;69.60;;;;;;5045481;28;20621;-29
2023/10/01 08:57:17;;;;;;;15.20;8.23;;;17.60;69.60;;;;;;5044681;28;20296;-29
2023/10/01 08:59:47;;;;;;;15.25;8.55;;;17.70;69.60;;;;;;5044790;28;20235;-29
2023/10/01 09:02:16;;;;;;;17.00;8.52;;;17.70;70.00;;;;;;5043286;28;20235;-29
2023/10/01 09:04:47;;;;;;;13.48;8.32;;;17.80;69.60;;;;;;5043156;28;20220;-29
2023/10/01 09:07:18;;;;;;;16.05;8.25;;;17.80;69.60;;;;;;5044701;28;20215;-29
2023/10/01 09:10:08;;;;;;;16.85;8.25;;;17.90;69.70;;;;;;5043578;28;20211;-30
2023/10/01 09:12:45;;;;;;;16.33;8.45;;;18.00;69.80;;;;;;5046764;28;20601;-29
2023/10/01 09:15:28;;;;;;;14.57;8.63;;;18.10;69.80;;;;;;5048705;28;20204;-29
2023/10/01 09:18:10;;;;;;;17.02;8.48;;;18.10;69.80;;;;;;5047351;28;20235;-29
2023/10/01 09:21:03;;;;;;;15.48;8.50;;;18.20;69.90;;;;;;5048896;28;20207;-29
2023/10/01 09:26:39;;;;;;;16.85;8.45;;;18.30;69.80;;;;;;5056046;28;20291;-29
2023/10/01 09:29:20;;;;;;;17.38;8.68;;;18.40;69.90;;;;;;5047234;28;20475;-29
2023/10/01 09:31:53;;;;;;;16.02;8.00;;;18.40;69.90;;;;;;5048708;28;20200;-29
2023/10/01 09:34:36;;;;;;;14.18;8.27;;;18.50;69.90;;;;;;5048239;28;20417;-29
2023/10/01 09:37:03;;;;;;;18.73;8.25;;;18.60;70.00;;;;;;5048326;28;20204;-29
2023/10/01 09:39:41;;;;;;;16.98;8.65;;;18.70;70.00;;;;;;5046548;28;20239;-29
2023/10/01 09:42:24;;;;;;;14.52;8.00;;;18.70;70.00;;;;;;5047989;28;20200;-29
2023/10/01 09:45:09;;;;;;;13.35;7.43;;;18.80;70.00;;;;;;5046651;28;20228;-29
2023/10/01 09:47:42;;;;;;;15.18;7.70;;;18.90;70.00;;;;;;5048184;28;20208;-29
2023/10/01 09:50:18;;;;;;;16.05;8.38;;;18.90;70.00;;;;;;5047865;28;20542;-29
2023/10/01 09:52:52;;;;;;;16.20;8.02;;;19.00;70.10;;;;;;5047712;28;20646;-30
2023/10/01 09:55:29;;;;;;;15.40;8.52;;;19.00;69.90;;;;;;5046754;28;20666;-30
2023/10/01 09:58:10;;;;;;;15.65;8.30;;;19.10;70.00;;;;;;5047811;28;20223;-30
2023/10/01 10:00:40;;;;;;;14.68;8.48;;;19.20;70.10;;;;;;5045901;28;20235;-29
2023/10/01 10:03:12;;;;;;;15.98;8.52;;;19.20;69.90;;;;;;5046329;28;20250;-29
2023/10/01 10:05:40;;;;;;;16.60;8.38;;;19.30;70.00;;;;;;5047638;28;20208;-28
2023/10/01 10:08:15;;;;;;;18.30;8.50;;;19.40;70.50;;;;;;5047615;28;20292;-29
2023/10/01 10:10:52;;;;;;;16.95;8.50;;;19.40;70.00;;;;;;5048460;28;20203;-29
2023/10/01 10:13:45;;;;;;;18.48;9.45;;;19.50;70.00;;;;;;5047736;28;20562;-29
2023/10/01 10:16:31;;;;;;;16.02;7.55;;;19.60;70.10;;;;;;5046059;28;20219;-29
2023/10/01 10:19:10;;;;;;;15.38;7.82;;;19.60;70.00;;;;;;5045485;28;20283;-29
2023/10/01 10:22:05;;;;;;;14.93;7.63;;;19.70;70.10;;;;;;5045939;28;20242;-29
2023/10/01 10:24:40;;;;;;;15.70;8.18;;;19.80;70.10;;;;;;5046702;28;20295;-29
2023/10/01 10:27:08;;;;;;;15.25;7.90;;;19.80;70.10;;;;;;5047448;28;20238;-29
2023/10/01 10:29:57;;;;;;;14.55;8.10;;;19.90;70.10;;;;;;5047114;28;20705;-29
2023/10/01 10:32:31;;;;;;;11.75;7.00;;;20.00;70.20;;;;;;5045897;28;20722;-29
2023/10/01 10:35:14;;;;;;;14.43;7.85;;;20.00;70.10;;;;;;5045695;28;20208;-29
2023/10/01 10:37:53;;;;;;;15.98;7.40;;;20.10;70.10;;;;;;5046959;28;20196;-29
2023/10/01 10:43:04;;;;;;;13.88;7.60;;;20.20;70.10;;;;;;5046985;28;20207;-29
2023/10/01 10:45:45;;;;;;;15.50;7.95;;;20.30;70.10;;;;;;5046790;28;20208;-29
2023/10/01 10:48:16;;;;;;;14.52;7.55;;;20.40;70.20;;;;;;5046031;28;20204;-29
2023/10/01 10:50:49;;;;;;;13.20;7.63;;;20.40;70.10;;;;;;5045554;28;20208;-29
2023/10/01 10:53:20;;;;;;;14.60;7.75;;;20.50;70.20;;;;;;5045661;28;20216;-29
2023/10/01 10:56:10;;;;;;;12.05;7.32;;;20.60;70.10;;;;;;5046796;28;20258;-29
2023/10/01 10:58:43;;;;;;;15.90;7.65;;;20.60;70.10;;;;;;5044772;28;20247;-29
2023/10/01 11:01:15;;;;;;;15.57;7.95;;;20.70;70.00;;;;;;5046094;28;20391;-30
2023/10/01 11:03:48;;;;;;;15.32;7.40;;;20.70;70.00;;;;;;5045002;28;20242;-29
2023/10/01 11:06:23;;;;;;;14.10;7.47;;;20.80;70.00;;;;;;5044432;28;20244;-29
2023/10/01 11:08:53;;;;;;;15.05;7.45;;;20.80;70.00;;;;;;5046069;28;20203;-28
2023/10/01 11:11:39;;;;;;;12.98;7.93;;;20.90;69.90;;;;;;5044558;28;20208;-33
2023/10/01 11:14:16;;;;;;;15.82;7.88;;;21.00;70.00;;;;;;5045850;28;20702;-32
2023/10/01 11:16:47;;;;;;;13.38;7.47;;;21.10;70.00;;;;;;5044546;28;20477;-32
2023/10/01 11:19:17;;;;;;;12.60;7.18;;;21.10;70.00;;;;;;5044431;28;20310;-32
2023/10/01 11:21:58;;;;;;;15.13;7.90;;;21.10;69.90;;;;;;5046192;28;20281;-33
2023/10/01 11:24:31;;;;;;;13.95;7.82;;;21.20;69.90;;;;;;5045044;28;20192;-32
2023/10/01 11:28:06;;;;;;;14.65;7.50;;;21.30;69.80;;;;;;5044723;28;20835;-33
2023/10/01 11:30:19;;;;;;;12.90;7.43;;;21.30;69.80;;;;;;5047687;28;20208;-32
2023/10/01 11:33:12;;;;;;;14.23;7.72;;;21.40;69.80;;;;;;5045714;28;20281;-33
2023/10/01 11:36:06;;;;;;;16.20;7.68;;;21.40;69.70;;;;;;5045323;28;20207;-32
2023/10/01 11:38:44;;;;;;;13.93;7.43;;;21.50;69.80;;;;;;5045410;28;20242;-33
2023/10/01 11:41:18;;;;;;;16.05;8.43;;;21.50;69.60;;;;;;5044217;28;20682;-32
2023/10/01 11:44:02;;;;;;;15.95;7.68;;;21.60;69.50;;;;;;5045846;28;20689;-33
2023/10/01 11:46:57;;;;;;;13.27;7.82;;;21.60;69.50;;;;;;5044325;28;20197;-32
2023/10/01 11:49:32;;;;;;;13.23;8.07;;;21.70;69.50;;;;;;5045086;28;20206;-33
2023/10/01 11:52:16;;;;;;;14.27;7.47;;;21.70;69.40;;;;;;5045260;28;20216;-33
2023/10/01 11:54:43;;;;;;;11.63;7.13;;;21.80;69.30;;;;;;5045446;28;20211;-33
2023/10/01 11:57:22;;;;;;;14.27;7.38;;;21.80;69.40;;;;;;5045308;28;20258;-33
2023/10/01 11:59:54;;;;;;;14.32;7.53;;;21.90;69.50;;;;;;5045231;28;20274;-33
2023/10/01 12:02:31;;;;;;;15.40;7.28;;;21.90;69.20;;;;;;5045958;28;20208;-33
2023/10/01 12:05:04;;;;;;;15.95;7.60;;;21.90;69.30;;;;;;5045270;28;20266;-32
2023/10/01 12:07:43;;;;;;;16.92;7.60;;;22.00;69.30;;;;;;5044108;28;20671;-33
2023/10/01 12:13:07;;;;;;;14.45;7.38;;;22.10;69.30;;;;;;5043752;28;20200;-32
2023/10/01 12:15:35;;;;;;;12.57;7.65;;;22.10;69.40;;;;;;5044830;28;20223;-32
2023/10/01 12:18:07;;;;;;;12.85;7.90;;;22.20;69.30;;;;;;5044793;28;20196;-32
2023/10/01 12:20:39;;;;;;;13.60;7.72;;;22.20;69.30;;;;;;5044955;28;20624;-33
2023/10/01 12:23:13;;;;;;;14.65;8.02;;;22.20;69.30;;;;;;5044956;28;20594;-33
2023/10/01 12:28:24;;;;;;;16.17;7.72;;;22.30;69.10;;;;;;5044762;28;20204;-33
2023/10/01 12:31:09;;;;;;;15.43;7.95;;;22.40;69.00;;;;;;5043409;28;20207;-33
2023/10/01 12:33:40;;;;;;;12.45;7.18;;;22.40;69.00;;;;;;5044883;28;20696;-33
2023/10/01 12:36:11;;;;;;;13.98;7.85;;;22.50;68.90;;;;;;5043272;28;20214;-33
2023/10/01 12:38:39;;;;;;;15.02;8.55;;;22.50;68.80;;;;;;5044016;28;20579;-33
2023/10/01 12:41:06;;;;;;;13.15;7.93;;;22.50;68.90;;;;;;5043045;28;20228;-33
2023/10/01 12:43:39;;;;;;;14.18;8.25;;;22.60;68.70;;;;;;5044597;28;20216;-33
2023/10/01 12:46:09;;;;;;;15.63;8.15;;;22.60;68.80;;;;;;5044721;28;20227;-33
2023/10/01 12:48:41;;;;;;;15.95;8.93;;;22.60;68.80;;;;;;5029401;28;20204;-33
2023/10/01 12:51:08;;;;;;;14.27;8.68;;;22.70;68.60;;;;;;5047120;28;20196;-33
2023/10/01 12:53:50;;;;;;;14.70;8.55;;;22.70;68.60;;;;;;5049227;28;20598;-33
2023/10/01 12:56:35;;;;;;;17.02;8.70;;;22.70;68.60;;;;;;5032363;28;20204;-33
2023/10/01 12:59:02;;;;;;;14.10;8.57;;;22.80;68.40;;;;;;5046885;28;20701;-33
2023/10/01 13:01:34;;;;;;;14.07;8.82;;;22.80;68.50;;;;;;5046978;28;20297;-33
2023/10/01 13:06:49;;;;;;;16.08;8.20;;;22.80;68.30;;;;;;5046909;28;20204;-33
2023/10/01 13:09:35;;;;;;;17.52;8.13;;;22.90;68.30;;;;;;5046776;28;20473;-33
2023/10/01 13:12:14;;;;;;;13.75;8.05;;;22.90;68.30;;;;;;5046662;28;20212;-33
2023/10/01 13:14:44;;;;;;;14.40;8.23;;;22.90;68.40;;;;;;5048231;28;20261;-33
2023/10/01 13:17:19;;;;;;;14.05;8.00;;;23.00;68.20;;;;;;5048539;28;20199;-34
2023/10/01 13:19:48;;;;;;;14.95;8.20;;;23.00;68.10;;;;;;5047844;28;20207;-33
2023/10/01 13:22:19;;;;;;;12.63;7.57;;;23.10;68.20;;;;;;5047893;28;20219;-33
2023/10/01 13:24:53;;;;;;;13.15;7.80;;;23.10;68.20;;;;;;5047981;28;20200;-33
2023/10/01 13:27:22;;;;;;;14.60;8.32;;;23.10;68.00;;;;;;5048263;28;20647;-33
2023/10/01 13:30:14;;;;;;;14.65;8.68;;;23.10;68.00;;;;;;5048091;28;20797;-33
2023/10/01 13:32:57;;;;;;;15.77;8.80;;;23.20;67.80;;;;;;5047916;28;20448;-33
2023/10/01 13:35:50;;;;;;;16.23;9.75;;;23.20;67.80;;;;;;5047525;28;20272;-33
2023/10/01 13:38:38;;;;;;;13.93;8.55;;;23.20;67.70;;;;;;5047736;28;20629;-33
2023/10/01 14:08:44;;;;;;;16.63;10.27;;;23.50;66.90;;;;;;5047711;28;20699;-33
2023/10/01 14:11:26;;;;;;;18.77;11.18;;;23.50;66.90;;;;;;5045495;28;20220;-33
2023/10/01 14:13:55;;;;;;;17.83;10.73;;;23.50;66.90;;;;;;5047076;28;20291;-33
2023/10/01 14:16:22;;;;;;;18.67;11.73;;;23.50;66.90;;;;;;5047396;28;20258;-33
2023/10/01 14:18:55;;;;;;;17.10;10.55;;;23.60;66.80;;;;;;5045306;28;20212;-33
2023/10/01 14:21:27;;;;;;;17.40;10.50;;;23.60;66.50;;;;;;5045349;28;20227;-33
2023/10/01 14:24:21;;;;;;;16.25;10.35;;;23.60;65.80;;;;;;5046962;28;20226;-33
2023/10/01 14:26:50;;;;;;;17.55;10.27;;;23.60;66.30;;;;;;5046813;28;20278;-29
2023/10/01 14:29:24;;;;;;;17.63;10.43;;;23.60;66.10;;;;;;5046988;28;20852;-29
2023/10/01 14:31:54;;;;;;;17.90;9.73;;;23.60;66.20;;;;;;5046208;28;20200;-29
2023/10/01 14:34:22;;;;;;;18.65;10.75;;;23.70;66.30;;;;;;5045275;28;20674;-29